Murry, Mississippi
Current Conditions -  °F | °C
As of 2:35 AM on Saturday 29 Nov 2014 (Local Time) from KCRX Reporting Station
Broken Clouds Broken Clouds  
Wind Chill: 37°   Ceiling: 4000
Heat Index: 43°   Visibility: NA
Dew Point: 28°   Wind: 9mph
Humidity: 57%   Direction: 170°S
Pressure: 30.13"   Gusts: NA
Location:  34.7808°N, 88.8865°W
Report Text: KCRX 290835Z AUTO 17008KT BKN040 06/M02 A3013 RMK AO2
Loading
Personal Weather Stations






























Interactive Weather Map New forecast layout! Learn more

10-Day Weather Forecast

Advertisements
Track Severe Weather on mobile